createdAt,value
2019-06-10T10:45:31.783Z,19.62
2019-06-10T10:48:04.059Z,19.31
2019-06-10T10:50:37.600Z,19.02
2019-06-10T10:53:08.897Z,18.36
2019-06-10T10:55:42.509Z,17.78
2019-06-10T10:58:14.217Z,17.36
2019-06-10T11:00:49.315Z,16.90
2019-06-10T11:03:19.606Z,16.70
2019-06-10T11:05:56.435Z,16.52
2019-06-10T11:08:25.977Z,16.25
2019-06-10T11:11:03.633Z,16.10
2019-06-10T11:13:35.998Z,15.90
2019-06-10T11:16:08.596Z,15.78
2019-06-10T11:18:42.313Z,15.75
2019-06-10T11:21:14.316Z,15.81
2019-06-10T11:23:46.255Z,15.92
2019-06-10T11:26:19.937Z,15.96
2019-06-10T11:28:54.382Z,15.96
2019-06-10T11:31:25.057Z,16.05
2019-06-10T11:33:58.991Z,16.16
2019-06-10T11:36:30.477Z,16.21
2019-06-10T11:39:03.081Z,16.22
2019-06-10T11:41:35.042Z,16.21
2019-06-10T11:44:06.662Z,16.32
2019-06-10T11:46:38.488Z,16.41
2019-06-10T11:49:12.687Z,16.57
2019-06-10T11:51:44.877Z,16.78
2019-06-10T11:54:17.226Z,17.03
2019-06-10T11:56:49.813Z,17.28
2019-06-10T11:59:22.000Z,17.63
2019-06-10T12:01:56.906Z,18.06
2019-06-10T12:04:29.037Z,18.63
2019-06-10T12:07:02.326Z,19.16
2019-06-10T12:09:35.517Z,19.63
2019-06-10T12:12:07.266Z,20.14
2019-06-10T12:14:39.456Z,20.33
2019-06-10T12:17:29.120Z,20.53
2019-06-10T12:19:44.701Z,20.76
2019-06-10T12:22:16.866Z,20.85
2019-06-10T12:24:50.322Z,20.90
2019-06-10T12:27:22.145Z,21.08
2019-06-10T12:29:56.288Z,21.38
2019-06-10T12:32:26.657Z,21.38
2019-06-10T12:34:59.655Z,21.10
2019-06-10T12:37:33.843Z,21.19
2019-06-10T12:40:07.543Z,21.16
2019-06-10T12:42:39.437Z,21.20
2019-06-10T12:45:12.876Z,21.73
2019-06-10T12:47:44.017Z,21.98
2019-06-10T12:50:18.097Z,22.37
2019-06-10T12:52:52.984Z,22.79
2019-06-10T12:55:37.945Z,23.05
2019-06-10T12:57:59.931Z,22.91
2019-06-10T13:00:33.878Z,23.00
2019-06-10T13:03:07.705Z,23.08
2019-06-10T13:05:42.499Z,23.10
2019-06-10T13:08:16.158Z,23.24
2019-06-10T13:10:49.037Z,23.16
2019-06-10T13:13:22.712Z,23.03
2019-06-10T13:15:56.204Z,22.81
2019-06-10T13:18:28.097Z,22.73
2019-06-10T13:21:02.518Z,22.87
2019-06-10T13:23:35.334Z,22.97
2019-06-10T13:26:10.813Z,22.84
2019-06-10T13:28:43.996Z,22.40
2019-06-10T13:31:15.057Z,22.35
2019-06-10T13:33:46.409Z,22.35
2019-06-10T13:36:18.256Z,22.30
2019-06-10T13:38:49.728Z,22.19
2019-06-10T13:41:22.750Z,22.09
2019-06-10T13:43:55.937Z,22.16
2019-06-10T13:46:28.718Z,22.03
2019-06-10T13:49:03.841Z,21.97
2019-06-10T13:51:35.629Z,22.04
2019-06-10T13:54:09.664Z,22.05
2019-06-10T13:56:47.038Z,22.00
2019-06-10T13:59:19.779Z,21.96
2019-06-10T14:01:53.150Z,21.85
2019-06-10T14:04:26.587Z,21.77
2019-06-10T14:06:58.477Z,21.44
2019-06-10T14:09:32.975Z,21.17
2019-06-10T14:12:05.946Z,20.72
2019-06-10T14:14:37.962Z,20.55
2019-06-10T14:17:09.689Z,20.06
2019-06-10T14:19:43.243Z,19.35
2019-06-10T14:22:16.009Z,18.76
2019-06-10T14:24:47.682Z,18.25
2019-06-10T14:27:21.713Z,17.96
2019-06-10T14:29:53.617Z,17.73
2019-06-10T14:32:25.039Z,17.48
2019-06-10T14:34:56.277Z,17.32
2019-06-10T14:37:38.058Z,17.30
2019-06-10T14:40:03.653Z,17.31
2019-06-10T14:42:33.925Z,17.21
2019-06-10T14:45:06.718Z,17.04
2019-06-10T14:47:37.677Z,16.93
2019-06-10T14:50:11.516Z,16.84
2019-06-10T14:52:43.145Z,16.81
2019-06-10T14:55:18.401Z,16.75
2019-06-10T14:57:48.564Z,16.76
2019-06-10T15:00:23.753Z,16.75
2019-06-10T15:02:55.597Z,16.74
2019-06-10T15:05:28.002Z,16.71
2019-06-10T15:07:59.180Z,16.67
2019-06-10T15:10:32.218Z,16.54
2019-06-10T15:13:06.058Z,16.64
2019-06-10T15:15:58.267Z,16.72
2019-06-10T15:18:29.137Z,16.68
2019-06-10T15:21:02.680Z,16.80
2019-06-10T15:23:34.184Z,16.94
2019-06-10T15:26:05.317Z,17.01
2019-06-10T15:28:36.818Z,17.07
2019-06-10T15:31:08.225Z,17.13
2019-06-10T15:33:39.470Z,17.02
2019-06-10T15:36:13.081Z,17.05
2019-06-10T15:38:47.097Z,17.19
2019-06-10T15:41:21.507Z,17.36
2019-06-10T15:43:53.200Z,17.40
2019-06-10T15:46:24.737Z,17.49
2019-06-10T15:48:55.957Z,17.57
2019-06-10T15:51:27.836Z,17.54
2019-06-10T15:53:59.337Z,17.57
2019-06-10T15:56:45.105Z,17.71
2019-06-10T15:59:05.877Z,17.76
2019-06-10T16:01:39.619Z,17.78
2019-06-10T16:04:14.420Z,17.74
2019-06-10T16:06:48.485Z,17.78
2019-06-10T16:09:23.475Z,17.87
2019-06-10T16:11:54.497Z,17.91
2019-06-10T16:14:28.560Z,17.96
2019-06-10T16:16:58.677Z,18.02
2019-06-10T16:19:53.006Z,18.02
2019-06-10T16:22:26.292Z,17.98
2019-06-10T16:24:58.446Z,17.89
2019-06-10T16:27:46.378Z,17.92
2019-06-10T16:30:03.243Z,18.01
2019-06-10T16:32:37.302Z,18.06
2019-06-10T16:35:08.707Z,18.08
2019-06-10T16:37:42.121Z,18.07
2019-06-10T16:40:13.604Z,18.10
2019-06-10T16:42:45.800Z,17.96
2019-06-10T16:45:26.615Z,17.93
2019-06-10T16:47:56.004Z,17.91
2019-06-10T16:50:58.381Z,18.00
2019-06-10T16:53:35.193Z,18.02
2019-06-10T16:56:08.446Z,18.02
2019-06-10T16:58:39.349Z,18.03
2019-06-10T17:01:12.365Z,18.04
2019-06-10T17:03:44.711Z,18.00
2019-06-10T17:06:17.458Z,17.90
2019-06-10T17:08:52.128Z,17.88
2019-06-10T17:11:24.166Z,17.87
2019-06-10T17:13:58.881Z,17.89
2019-06-10T17:16:31.039Z,17.78
2019-06-10T17:19:03.242Z,17.69
2019-06-10T17:21:35.036Z,17.61
2019-06-10T17:24:06.540Z,17.62
2019-06-10T17:26:42.625Z,17.52
2019-06-10T17:29:17.661Z,17.52
2019-06-10T17:31:49.042Z,17.51
2019-06-10T17:34:24.589Z,17.51
2019-06-10T17:36:58.381Z,17.61
2019-06-10T17:39:29.931Z,17.67
2019-06-10T17:42:03.442Z,17.64
2019-06-10T17:44:34.266Z,17.61
2019-06-10T17:47:06.865Z,17.67
2019-06-10T17:49:37.806Z,17.66
2019-06-10T17:52:09.481Z,17.63
2019-06-10T17:54:40.461Z,17.51
2019-06-10T17:57:12.796Z,17.55
2019-06-10T17:59:47.102Z,17.49
2019-06-10T18:02:19.190Z,17.51
2019-06-10T18:04:52.538Z,17.59
2019-06-10T18:07:25.586Z,17.62
2019-06-10T18:10:02.745Z,17.68
2019-06-10T18:12:35.792Z,17.61
2019-06-10T18:15:08.873Z,17.56
2019-06-10T18:17:42.548Z,17.57
2019-06-10T18:20:13.928Z,17.53
2019-06-10T18:22:45.502Z,17.45
2019-06-10T18:25:17.121Z,17.42
2019-06-10T18:27:52.211Z,17.42
2019-06-10T18:30:27.250Z,17.35
2019-06-10T18:32:59.621Z,17.34
2019-06-10T18:35:34.394Z,17.32
2019-06-10T18:38:06.761Z,17.31
2019-06-10T18:40:42.939Z,17.29
2019-06-10T18:43:18.303Z,17.23
2019-06-10T18:45:52.967Z,17.16
2019-06-10T18:48:37.882Z,17.14
2019-06-10T18:51:09.109Z,17.11
2019-06-10T18:53:42.589Z,17.03
2019-06-10T18:56:14.680Z,16.98
2019-06-10T18:58:53.018Z,16.98
2019-06-10T19:01:24.732Z,16.82
2019-06-10T19:03:55.184Z,16.70
2019-06-10T19:06:26.792Z,16.46
2019-06-10T19:08:59.280Z,16.27
2019-06-10T19:11:31.705Z,16.20
2019-06-10T19:14:04.275Z,16.21
2019-06-10T19:16:37.335Z,16.24
2019-06-10T19:19:12.527Z,16.16
2019-06-10T19:21:44.423Z,16.07
2019-06-10T19:24:15.705Z,15.98
2019-06-10T19:26:47.844Z,15.94
2019-06-10T19:29:32.705Z,15.92
2019-06-10T19:32:03.796Z,15.94
2019-06-10T19:34:35.641Z,15.93
2019-06-10T19:37:08.223Z,15.95
2019-06-10T19:39:46.157Z,15.88
2019-06-10T19:42:13.052Z,15.85
2019-06-10T19:44:46.049Z,15.83
2019-06-10T19:47:18.235Z,15.80
2019-06-10T19:49:52.194Z,15.78
2019-06-10T19:52:24.580Z,15.77
2019-06-10T19:54:58.453Z,15.71
2019-06-10T19:57:49.661Z,15.60
2019-06-10T20:00:22.253Z,15.59
2019-06-10T20:02:54.161Z,15.45
2019-06-10T20:05:26.335Z,15.35
2019-06-10T20:07:58.329Z,15.28
2019-06-10T20:10:32.456Z,15.21
2019-06-10T20:13:04.861Z,15.08
2019-06-10T20:15:37.404Z,15.05
2019-06-10T20:18:12.241Z,15.07
2019-06-10T20:20:47.060Z,15.11
2019-06-10T20:23:21.903Z,15.15
2019-06-10T20:25:58.461Z,15.17
2019-06-10T20:28:32.184Z,15.12
2019-06-10T20:31:04.180Z,15.06
2019-06-10T20:33:38.637Z,15.03
2019-06-10T20:36:20.892Z,15.02
2019-06-10T20:38:48.208Z,15.08
2019-06-10T20:41:16.698Z,15.12
2019-06-10T20:43:52.607Z,15.13
2019-06-10T20:46:23.670Z,15.05
2019-06-10T20:48:57.002Z,15.04
2019-06-10T20:51:28.870Z,15.10
2019-06-10T20:54:02.639Z,15.13
2019-06-10T20:56:35.402Z,15.18
2019-06-10T20:59:06.283Z,15.18
2019-06-10T21:01:38.775Z,15.18
2019-06-10T21:04:13.182Z,15.15
2019-06-10T21:06:47.459Z,15.10
2019-06-10T21:09:22.510Z,15.04
2019-06-10T21:11:54.453Z,15.01
2019-06-10T21:14:26.789Z,15.02
2019-06-10T21:17:00.123Z,15.02
2019-06-10T21:19:33.097Z,15.04
2019-06-10T21:22:03.209Z,15.05
2019-06-10T21:24:35.694Z,15.02
2019-06-10T21:27:06.801Z,14.95
2019-06-10T21:29:37.461Z,14.91
2019-06-10T21:32:07.741Z,14.89
2019-06-10T21:34:38.561Z,14.89
2019-06-10T21:37:08.749Z,14.91
2019-06-10T21:39:39.598Z,14.91
2019-06-10T21:42:12.861Z,14.90
2019-06-10T21:44:45.826Z,14.87
2019-06-10T21:47:17.208Z,14.85
2019-06-10T21:49:48.642Z,14.80
2019-06-10T21:52:19.515Z,14.76
2019-06-10T21:54:50.741Z,14.71
2019-06-10T21:57:22.281Z,14.61
2019-06-10T21:59:54.020Z,14.55
2019-06-10T22:02:27.260Z,14.52
2019-06-10T22:05:03.129Z,14.45
2019-06-10T22:07:34.420Z,14.39
2019-06-10T22:10:06.400Z,14.34
2019-06-10T22:12:36.781Z,14.25
2019-06-10T22:15:09.265Z,14.21
2019-06-10T22:17:42.678Z,14.15
2019-06-10T22:20:15.872Z,14.12
2019-06-10T22:22:48.554Z,14.11
2019-06-10T22:25:22.399Z,14.09
2019-06-10T22:27:54.222Z,14.08
2019-06-10T22:30:43.338Z,14.02
2019-06-10T22:33:15.774Z,14.04
2019-06-10T22:35:57.124Z,14.05
2019-06-10T22:38:28.117Z,14.04
2019-06-10T22:41:02.963Z,14.05
2019-06-10T22:43:33.875Z,14.05
2019-06-10T22:46:06.785Z,14.04
2019-06-10T22:48:38.897Z,14.01
2019-06-10T22:51:12.289Z,13.98
2019-06-10T22:53:44.617Z,13.96
2019-06-10T22:56:17.455Z,13.99
2019-06-10T22:58:49.762Z,13.99
2019-06-10T23:01:31.673Z,14.00
2019-06-10T23:03:56.372Z,14.00
2019-06-10T23:06:27.906Z,13.97
2019-06-10T23:09:02.613Z,13.94
2019-06-10T23:11:35.293Z,13.93
2019-06-10T23:14:08.549Z,13.91
2019-06-10T23:16:42.605Z,13.89
2019-06-10T23:19:16.686Z,13.90
2019-06-10T23:21:49.216Z,13.89
2019-06-10T23:24:22.835Z,13.84
2019-06-10T23:26:55.891Z,13.83
2019-06-10T23:29:27.661Z,13.85
2019-06-10T23:32:05.917Z,13.84
2019-06-10T23:34:33.553Z,13.83
2019-06-10T23:37:07.256Z,13.82
2019-06-10T23:39:38.906Z,13.79
2019-06-10T23:42:13.606Z,13.74
2019-06-10T23:44:45.632Z,13.74
2019-06-10T23:47:18.640Z,13.73
2019-06-10T23:49:51.635Z,13.68
2019-06-10T23:52:24.615Z,13.63
2019-06-10T23:54:57.946Z,13.61
2019-06-10T23:57:30.285Z,13.53
